sensor_id;sensor_type;location;lat;lon;timestamp;temperature;humidity
40932;DHT22;36257;46.052;12.540;2022-09-27T00:01:15;14.30;99.90
40932;DHT22;36257;46.052;12.540;2022-09-27T00:03:41;14.30;99.90
40932;DHT22;36257;46.052;12.540;2022-09-27T00:06:12;14.40;99.90
40932;DHT22;36257;46.052;12.540;2022-09-27T00:08:39;14.50;99.90
40932;DHT22;36257;46.052;12.540;2022-09-27T00:11:07;14.60;99.90
40932;DHT22;36257;46.052;12.540;2022-09-27T00:13:34;14.70;99.90
40932;DHT22;36257;46.052;12.540;2022-09-27T00:16:02;14.70;99.90
40932;DHT22;36257;46.052;12.540;2022-09-27T00:18:31;14.70;99.90
40932;DHT22;36257;46.052;12.540;2022-09-27T00:21:09;14.60;99.90
40932;DHT22;36257;46.052;12.540;2022-09-27T00:23:36;14.50;99.90
40932;DHT22;36257;46.052;12.540;2022-09-27T00:26:02;14.50;99.90
40932;DHT22;36257;46.052;12.540;2022-09-27T00:28:28;14.50;99.90
40932;DHT22;36257;46.052;12.540;2022-09-27T00:30:56;14.50;99.90
40932;DHT22;36257;46.052;12.540;2022-09-27T00:33:21;14.60;99.90
40932;DHT22;36257;46.052;12.540;2022-09-27T00:35:47;14.50;99.90
40932;DHT22;36257;46.052;12.540;2022-09-27T00:38:13;14.40;99.90
40932;DHT22;36257;46.052;12.540;2022-09-27T00:40:39;14.30;99.90
40932;DHT22;36257;46.052;12.540;2022-09-27T00:43:23;14.40;99.90
40932;DHT22;36257;46.052;12.540;2022-09-27T00:45:54;14.50;99.90
40932;DHT22;36257;46.052;12.540;2022-09-27T00:48:25;14.50;99.90
40932;DHT22;36257;46.052;12.540;2022-09-27T00:50:57;14.60;99.90
40932;DHT22;36257;46.052;12.540;2022-09-27T00:53:33;14.60;99.90
40932;DHT22;36257;46.052;12.540;2022-09-27T00:56:04;14.60;99.90
40932;DHT22;36257;46.052;12.540;2022-09-27T00:58:36;14.60;99.90
40932;DHT22;36257;46.052;12.540;2022-09-27T01:01:06;14.60;99.90
40932;DHT22;36257;46.052;12.540;2022-09-27T01:06:01;14.50;99.90
40932;DHT22;36257;46.052;12.540;2022-09-27T01:08:27;14.50;99.90
40932;DHT22;36257;46.052;12.540;2022-09-27T01:13:42;14.40;99.90
40932;DHT22;36257;46.052;12.540;2022-09-27T01:24:59;14.30;99.90
40932;DHT22;36257;46.052;12.540;2022-09-27T01:30:18;14.30;99.90
40932;DHT22;36257;46.052;12.540;2022-09-27T01:32:47;14.30;99.90
40932;DHT22;36257;46.052;12.540;2022-09-27T01:40:38;14.20;99.90
40932;DHT22;36257;46.052;12.540;2022-09-27T01:43:08;14.20;99.90
40932;DHT22;36257;46.052;12.540;2022-09-27T01:45:42;14.20;99.90
40932;DHT22;36257;46.052;12.540;2022-09-27T01:48:16;14.20;99.90
40932;DHT22;36257;46.052;12.540;2022-09-27T01:50:50;14.20;99.90
40932;DHT22;36257;46.052;12.540;2022-09-27T01:56:01;14.10;99.90
40932;DHT22;36257;46.052;12.540;2022-09-27T01:58:35;14.10;99.90
40932;DHT22;36257;46.052;12.540;2022-09-27T02:01:02;14.10;99.90
40932;DHT22;36257;46.052;12.540;2022-09-27T02:03:38;14.20;99.90
40932;DHT22;36257;46.052;12.540;2022-09-27T02:06:12;14.20;99.90
40932;DHT22;36257;46.052;12.540;2022-09-27T02:08:50;14.10;99.90
40932;DHT22;36257;46.052;12.540;2022-09-27T02:11:17;14.10;99.90
40932;DHT22;36257;46.052;12.540;2022-09-27T02:13:51;14.10;99.90
40932;DHT22;36257;46.052;12.540;2022-09-27T02:19:15;14.00;99.90
40932;DHT22;36257;46.052;12.540;2022-09-27T02:24:56;14.10;99.90
40932;DHT22;36257;46.052;12.540;2022-09-27T02:27:48;14.10;99.90
40932;DHT22;36257;46.052;12.540;2022-09-27T02:30:15;14.10;99.90
40932;DHT22;36257;46.052;12.540;2022-09-27T02:32:42;14.10;99.90
40932;DHT22;36257;46.052;12.540;2022-09-27T02:35:17;14.20;99.90
40932;DHT22;36257;46.052;12.540;2022-09-27T02:37:44;14.20;99.90
40932;DHT22;36257;46.052;12.540;2022-09-27T02:40:10;14.20;99.90
40932;DHT22;36257;46.052;12.540;2022-09-27T02:42:36;14.20;99.90
40932;DHT22;36257;46.052;12.540;2022-09-27T02:45:03;14.10;99.90
40932;DHT22;36257;46.052;12.540;2022-09-27T02:51:17;14.10;99.90
40932;DHT22;36257;46.052;12.540;2022-09-27T03:04:36;14.20;99.90
40932;DHT22;36257;46.052;12.540;2022-09-27T03:07:05;14.10;99.90
40932;DHT22;36257;46.052;12.540;2022-09-27T03:09:45;14.00;99.90
40932;DHT22;36257;46.052;12.540;2022-09-27T03:12:12;14.00;99.90
40932;DHT22;36257;46.052;12.540;2022-09-27T03:14:38;13.90;99.90
40932;DHT22;36257;46.052;12.540;2022-09-27T03:17:04;13.90;99.90
40932;DHT22;36257;46.052;12.540;2022-09-27T03:19:30;14.00;99.90
40932;DHT22;36257;46.052;12.540;2022-09-27T03:21:57;13.90;99.90
40932;DHT22;36257;46.052;12.540;2022-09-27T03:24:23;13.80;99.90
40932;DHT22;36257;46.052;12.540;2022-09-27T03:26:48;13.80;99.90
40932;DHT22;36257;46.052;12.540;2022-09-27T03:29:14;13.80;99.90
40932;DHT22;36257;46.052;12.540;2022-09-27T03:31:41;13.80;99.90
40932;DHT22;36257;46.052;12.540;2022-09-27T03:34:07;13.80;99.90
40932;DHT22;36257;46.052;12.540;2022-09-27T03:36:32;13.80;99.90
40932;DHT22;36257;46.052;12.540;2022-09-27T03:38:58;13.70;99.90
40932;DHT22;36257;46.052;12.540;2022-09-27T03:41:24;13.70;99.90
40932;DHT22;36257;46.052;12.540;2022-09-27T03:43:49;13.70;99.90
40932;DHT22;36257;46.052;12.540;2022-09-27T03:46:15;13.80;99.90
40932;DHT22;36257;46.052;12.540;2022-09-27T03:48:41;13.80;99.90
40932;DHT22;36257;46.052;12.540;2022-09-27T03:51:07;13.80;99.90
40932;DHT22;36257;46.052;12.540;2022-09-27T03:53:34;13.80;99.90
40932;DHT22;36257;46.052;12.540;2022-09-27T03:56:00;13.80;99.90
40932;DHT22;36257;46.052;12.540;2022-09-27T03:58:26;13.80;99.90
40932;DHT22;36257;46.052;12.540;2022-09-27T04:00:51;13.80;99.90
40932;DHT22;36257;46.052;12.540;2022-09-27T04:03:17;13.80;99.90
40932;DHT22;36257;46.052;12.540;2022-09-27T04:05:44;13.80;99.90
40932;DHT22;36257;46.052;12.540;2022-09-27T04:08:10;13.70;99.90
40932;DHT22;36257;46.052;12.540;2022-09-27T04:10:36;13.60;99.90
40932;DHT22;36257;46.052;12.540;2022-09-27T04:13:02;13.70;99.90
40932;DHT22;36257;46.052;12.540;2022-09-27T04:15:28;13.70;99.90
40932;DHT22;36257;46.052;12.540;2022-09-27T04:17:53;13.60;99.90
40932;DHT22;36257;46.052;12.540;2022-09-27T04:20:19;13.60;99.90
40932;DHT22;36257;46.052;12.540;2022-09-27T04:22:45;13.60;99.90
40932;DHT22;36257;46.052;12.540;2022-09-27T04:25:11;13.60;99.90
40932;DHT22;36257;46.052;12.540;2022-09-27T04:27:37;13.60;99.90
40932;DHT22;36257;46.052;12.540;2022-09-27T04:30:03;13.70;99.90
40932;DHT22;36257;46.052;12.540;2022-09-27T04:32:30;13.60;99.90
40932;DHT22;36257;46.052;12.540;2022-09-27T04:34:56;13.70;99.90
40932;DHT22;36257;46.052;12.540;2022-09-27T04:37:40;13.70;99.90
40932;DHT22;36257;46.052;12.540;2022-09-27T04:40:08;13.70;99.90
40932;DHT22;36257;46.052;12.540;2022-09-27T04:42:34;13.70;99.90
40932;DHT22;36257;46.052;12.540;2022-09-27T04:44:59;13.70;99.90
40932;DHT22;36257;46.052;12.540;2022-09-27T04:47:25;13.70;99.90
40932;DHT22;36257;46.052;12.540;2022-09-27T04:49:51;13.70;99.90
40932;DHT22;36257;46.052;12.540;2022-09-27T04:52:16;13.70;99.90
40932;DHT22;36257;46.052;12.540;2022-09-27T04:54:42;13.70;99.90
40932;DHT22;36257;46.052;12.540;2022-09-27T04:57:08;13.70;99.90
40932;DHT22;36257;46.052;12.540;2022-09-27T04:59:33;13.70;99.90
40932;DHT22;36257;46.052;12.540;2022-09-27T05:01:59;13.70;99.90
40932;DHT22;36257;46.052;12.540;2022-09-27T05:04:25;13.70;99.90
40932;DHT22;36257;46.052;12.540;2022-09-27T05:06:51;13.70;99.90
40932;DHT22;36257;46.052;12.540;2022-09-27T05:09:17;13.70;99.90
40932;DHT22;36257;46.052;12.540;2022-09-27T05:11:42;13.80;99.90
40932;DHT22;36257;46.052;12.540;2022-09-27T05:14:08;13.80;99.90
40932;DHT22;36257;46.052;12.540;2022-09-27T05:16:34;13.80;99.90
40932;DHT22;36257;46.052;12.540;2022-09-27T05:19:02;13.90;99.90
40932;DHT22;36257;46.052;12.540;2022-09-27T05:21:27;13.90;99.90
40932;DHT22;36257;46.052;12.540;2022-09-27T05:23:53;13.90;99.90
40932;DHT22;36257;46.052;12.540;2022-09-27T05:26:19;13.90;99.90
40932;DHT22;36257;46.052;12.540;2022-09-27T05:28:45;13.80;99.90
40932;DHT22;36257;46.052;12.540;2022-09-27T05:31:12;13.90;99.90
40932;DHT22;36257;46.052;12.540;2022-09-27T05:33:39;14.00;99.90
40932;DHT22;36257;46.052;12.540;2022-09-27T05:36:05;13.90;99.90
40932;DHT22;36257;46.052;12.540;2022-09-27T05:38:31;14.00;99.90
40932;DHT22;36257;46.052;12.540;2022-09-27T05:40:57;14.00;99.90
40932;DHT22;36257;46.052;12.540;2022-09-27T05:43:23;14.10;99.90
40932;DHT22;36257;46.052;12.540;2022-09-27T05:45:49;14.00;99.90
40932;DHT22;36257;46.052;12.540;2022-09-27T05:48:17;13.90;99.90
40932;DHT22;36257;46.052;12.540;2022-09-27T05:50:44;13.90;99.90
40932;DHT22;36257;46.052;12.540;2022-09-27T05:53:11;13.90;99.90
40932;DHT22;36257;46.052;12.540;2022-09-27T05:55:38;13.90;99.90
40932;DHT22;36257;46.052;12.540;2022-09-27T05:58:06;14.00;99.90
40932;DHT22;36257;46.052;12.540;2022-09-27T06:00:32;14.00;99.90
40932;DHT22;36257;46.052;12.540;2022-09-27T06:03:00;14.10;99.90
40932;DHT22;36257;46.052;12.540;2022-09-27T06:05:28;14.10;99.90
40932;DHT22;36257;46.052;12.540;2022-09-27T06:07:59;14.20;99.90
40932;DHT22;36257;46.052;12.540;2022-09-27T06:10:25;14.20;99.90
40932;DHT22;36257;46.052;12.540;2022-09-27T06:12:51;14.20;99.90
40932;DHT22;36257;46.052;12.540;2022-09-27T06:15:17;14.20;99.90
40932;DHT22;36257;46.052;12.540;2022-09-27T06:17:42;14.10;99.90
40932;DHT22;36257;46.052;12.540;2022-09-27T06:20:08;14.10;99.90
40932;DHT22;36257;46.052;12.540;2022-09-27T06:22:35;14.10;99.90
40932;DHT22;36257;46.052;12.540;2022-09-27T06:25:02;14.20;99.90
40932;DHT22;36257;46.052;12.540;2022-09-27T06:27:29;14.20;99.90
40932;DHT22;36257;46.052;12.540;2022-09-27T06:29:55;14.20;99.90
40932;DHT22;36257;46.052;12.540;2022-09-27T06:32:20;14.20;99.90
40932;DHT22;36257;46.052;12.540;2022-09-27T06:34:46;14.20;99.90
40932;DHT22;36257;46.052;12.540;2022-09-27T06:37:12;14.20;99.90
40932;DHT22;36257;46.052;12.540;2022-09-27T06:39:37;14.30;99.90
40932;DHT22;36257;46.052;12.540;2022-09-27T06:42:03;14.20;99.90
40932;DHT22;36257;46.052;12.540;2022-09-27T06:44:29;14.20;99.90
40932;DHT22;36257;46.052;12.540;2022-09-27T06:46:54;14.30;99.90
40932;DHT22;36257;46.052;12.540;2022-09-27T06:49:23;14.20;99.90
40932;DHT22;36257;46.052;12.540;2022-09-27T06:51:50;14.20;99.90
40932;DHT22;36257;46.052;12.540;2022-09-27T06:54:17;14.20;99.90
40932;DHT22;36257;46.052;12.540;2022-09-27T06:56:45;14.20;99.90
40932;DHT22;36257;46.052;12.540;2022-09-27T06:59:11;14.20;99.90
40932;DHT22;36257;46.052;12.540;2022-09-27T07:01:55;14.20;99.90
40932;DHT22;36257;46.052;12.540;2022-09-27T07:04:21;14.20;99.90
40932;DHT22;36257;46.052;12.540;2022-09-27T07:06:47;14.20;99.90
40932;DHT22;36257;46.052;12.540;2022-09-27T07:09:13;14.20;99.90
40932;DHT22;36257;46.052;12.540;2022-09-27T07:11:39;14.20;99.90
40932;DHT22;36257;46.052;12.540;2022-09-27T07:14:04;14.20;99.90
40932;DHT22;36257;46.052;12.540;2022-09-27T07:16:32;14.30;99.90
40932;DHT22;36257;46.052;12.540;2022-09-27T07:18:59;14.30;99.90
40932;DHT22;36257;46.052;12.540;2022-09-27T07:21:25;14.30;99.90
40932;DHT22;36257;46.052;12.540;2022-09-27T07:23:51;14.30;99.90
40932;DHT22;36257;46.052;12.540;2022-09-27T07:26:17;14.30;99.90
40932;DHT22;36257;46.052;12.540;2022-09-27T07:28:42;14.30;99.90
40932;DHT22;36257;46.052;12.540;2022-09-27T07:31:09;14.40;99.90
40932;DHT22;36257;46.052;12.540;2022-09-27T07:33:36;14.40;99.90
40932;DHT22;36257;46.052;12.540;2022-09-27T07:36:08;14.50;99.90
40932;DHT22;36257;46.052;12.540;2022-09-27T07:38:35;14.50;99.90
40932;DHT22;36257;46.052;12.540;2022-09-27T07:41:08;14.50;99.90
40932;DHT22;36257;46.052;12.540;2022-09-27T07:43:33;14.50;99.90
40932;DHT22;36257;46.052;12.540;2022-09-27T07:45:59;14.50;99.90
40932;DHT22;36257;46.052;12.540;2022-09-27T07:48:25;14.50;99.90
40932;DHT22;36257;46.052;12.540;2022-09-27T07:50:52;14.50;99.90
40932;DHT22;36257;46.052;12.540;2022-09-27T07:53:17;14.60;99.90
40932;DHT22;36257;46.052;12.540;2022-09-27T07:55:48;14.60;99.90
40932;DHT22;36257;46.052;12.540;2022-09-27T07:58:13;14.70;99.90
40932;DHT22;36257;46.052;12.540;2022-09-27T08:00:39;14.80;99.90
40932;DHT22;36257;46.052;12.540;2022-09-27T08:03:15;14.90;99.90
40932;DHT22;36257;46.052;12.540;2022-09-27T08:05:46;15.00;99.90
40932;DHT22;36257;46.052;12.540;2022-09-27T08:08:13;15.10;99.90
40932;DHT22;36257;46.052;12.540;2022-09-27T08:10:38;15.20;99.90
40932;DHT22;36257;46.052;12.540;2022-09-27T08:13:09;15.50;99.90
40932;DHT22;36257;46.052;12.540;2022-09-27T08:15:35;15.70;99.90
40932;DHT22;36257;46.052;12.540;2022-09-27T08:18:03;15.80;99.90
40932;DHT22;36257;46.052;12.540;2022-09-27T08:20:29;15.90;99.90
40932;DHT22;36257;46.052;12.540;2022-09-27T08:22:54;16.10;99.90
40932;DHT22;36257;46.052;12.540;2022-09-27T08:25:21;16.20;99.90
40932;DHT22;36257;46.052;12.540;2022-09-27T08:27:55;16.30;99.90
40932;DHT22;36257;46.052;12.540;2022-09-27T08:30:21;16.40;97.90
40932;DHT22;36257;46.052;12.540;2022-09-27T08:32:47;16.60;97.30
40932;DHT22;36257;46.052;12.540;2022-09-27T08:35:12;16.70;97.90
40932;DHT22;36257;46.052;12.540;2022-09-27T08:37:40;16.80;97.50
40932;DHT22;36257;46.052;12.540;2022-09-27T08:40:06;16.90;95.60
40932;DHT22;36257;46.052;12.540;2022-09-27T08:45:28;17.30;94.50
40932;DHT22;36257;46.052;12.540;2022-09-27T08:48:00;17.40;93.00
40932;DHT22;36257;46.052;12.540;2022-09-27T08:53:04;17.80;94.90
40932;DHT22;36257;46.052;12.540;2022-09-27T08:55:37;17.90;92.00
40932;DHT22;36257;46.052;12.540;2022-09-27T08:58:18;17.80;92.10
40932;DHT22;36257;46.052;12.540;2022-09-27T09:00:45;17.70;92.80
40932;DHT22;36257;46.052;12.540;2022-09-27T09:03:19;17.70;93.90
40932;DHT22;36257;46.052;12.540;2022-09-27T09:17:51;17.40;94.90
40932;DHT22;36257;46.052;12.540;2022-09-27T09:34:45;17.80;92.40
40932;DHT22;36257;46.052;12.540;2022-09-27T09:37:20;17.80;93.00
40932;DHT22;36257;46.052;12.540;2022-09-27T09:42:57;18.20;91.50
40932;DHT22;36257;46.052;12.540;2022-09-27T09:45:29;18.60;92.70
40932;DHT22;36257;46.052;12.540;2022-09-27T09:48:11;19.30;91.40
40932;DHT22;36257;46.052;12.540;2022-09-27T09:50:47;20.00;89.70
40932;DHT22;36257;46.052;12.540;2022-09-27T09:53:21;20.40;84.40
40932;DHT22;36257;46.052;12.540;2022-09-27T09:55:56;20.40;84.60
40932;DHT22;36257;46.052;12.540;2022-09-27T09:58:28;20.50;84.80
40932;DHT22;36257;46.052;12.540;2022-09-27T10:00:59;20.80;85.50
40932;DHT22;36257;46.052;12.540;2022-09-27T10:03:33;21.20;82.40
40932;DHT22;36257;46.052;12.540;2022-09-27T10:05:58;21.50;82.20
40932;DHT22;36257;46.052;12.540;2022-09-27T10:08:24;21.80;83.30
40932;DHT22;36257;46.052;12.540;2022-09-27T10:10:50;21.60;82.10
40932;DHT22;36257;46.052;12.540;2022-09-27T10:13:18;21.50;80.90
40932;DHT22;36257;46.052;12.540;2022-09-27T10:15:54;21.50;80.30
40932;DHT22;36257;46.052;12.540;2022-09-27T10:18:21;21.70;79.10
40932;DHT22;36257;46.052;12.540;2022-09-27T10:21:00;22.10;83.70
40932;DHT22;36257;46.052;12.540;2022-09-27T10:23:26;22.70;80.30
40932;DHT22;36257;46.052;12.540;2022-09-27T10:25:54;23.10;77.60
40932;DHT22;36257;46.052;12.540;2022-09-27T10:28:36;23.30;78.80
40932;DHT22;36257;46.052;12.540;2022-09-27T10:31:07;23.30;75.20
40932;DHT22;36257;46.052;12.540;2022-09-27T10:33:36;22.90;77.90
40932;DHT22;36257;46.052;12.540;2022-09-27T10:36:03;22.70;79.50
40932;DHT22;36257;46.052;12.540;2022-09-27T10:38:55;22.70;77.70
40932;DHT22;36257;46.052;12.540;2022-09-27T10:43:52;22.30;77.70
40932;DHT22;36257;46.052;12.540;2022-09-27T10:46:31;22.30;79.20
40932;DHT22;36257;46.052;12.540;2022-09-27T10:49:12;22.00;77.70
40932;DHT22;36257;46.052;12.540;2022-09-27T10:51:42;21.70;80.80
40932;DHT22;36257;46.052;12.540;2022-09-27T10:54:34;21.70;81.40
40932;DHT22;36257;46.052;12.540;2022-09-27T10:57:03;21.80;79.90
40932;DHT22;36257;46.052;12.540;2022-09-27T10:59:33;22.00;75.00
40932;DHT22;36257;46.052;12.540;2022-09-27T11:02:01;22.20;74.70
40932;DHT22;36257;46.052;12.540;2022-09-27T11:04:34;22.20;73.60
40932;DHT22;36257;46.052;12.540;2022-09-27T11:07:26;21.90;78.70
40932;DHT22;36257;46.052;12.540;2022-09-27T11:09:55;21.80;76.60
40932;DHT22;36257;46.052;12.540;2022-09-27T11:12:24;21.70;78.40
40932;DHT22;36257;46.052;12.540;2022-09-27T11:15:00;21.40;77.10
40932;DHT22;36257;46.052;12.540;2022-09-27T11:17:31;21.20;79.20
40932;DHT22;36257;46.052;12.540;2022-09-27T11:31:11;20.00;87.00
40932;DHT22;36257;46.052;12.540;2022-09-27T11:34:03;19.80;90.00
40932;DHT22;36257;46.052;12.540;2022-09-27T11:45:30;19.30;94.30
40932;DHT22;36257;46.052;12.540;2022-09-27T11:48:11;19.20;94.80
40932;DHT22;36257;46.052;12.540;2022-09-27T11:50:58;19.20;94.80
40932;DHT22;36257;46.052;12.540;2022-09-27T12:04:14;21.70;90.00
40932;DHT22;36257;46.052;12.540;2022-09-27T12:09:39;22.80;84.80
40932;DHT22;36257;46.052;12.540;2022-09-27T12:14:45;24.00;78.80
40932;DHT22;36257;46.052;12.540;2022-09-27T12:17:18;24.30;77.90
40932;DHT22;36257;46.052;12.540;2022-09-27T12:19:48;24.60;78.20
40932;DHT22;36257;46.052;12.540;2022-09-27T12:22:20;24.70;77.30
40932;DHT22;36257;46.052;12.540;2022-09-27T12:24:51;24.80;75.70
40932;DHT22;36257;46.052;12.540;2022-09-27T12:27:34;25.00;73.30
40932;DHT22;36257;46.052;12.540;2022-09-27T12:30:02;25.00;73.00
40932;DHT22;36257;46.052;12.540;2022-09-27T12:35:21;25.10;73.50
40932;DHT22;36257;46.052;12.540;2022-09-27T12:37:58;25.10;72.00
40932;DHT22;36257;46.052;12.540;2022-09-27T12:40:33;25.00;71.70
40932;DHT22;36257;46.052;12.540;2022-09-27T12:43:11;25.20;75.30
40932;DHT22;36257;46.052;12.540;2022-09-27T12:51:12;25.20;70.70
40932;DHT22;36257;46.052;12.540;2022-09-27T12:56:19;25.60;71.50
40932;DHT22;36257;46.052;12.540;2022-09-27T13:01:54;25.20;70.50
40932;DHT22;36257;46.052;12.540;2022-09-27T13:09:49;25.30;70.80
40932;DHT22;36257;46.052;12.540;2022-09-27T13:12:22;25.30;71.60
40932;DHT22;36257;46.052;12.540;2022-09-27T13:15:16;25.10;70.90
40932;DHT22;36257;46.052;12.540;2022-09-27T13:20:35;24.80;72.70
40932;DHT22;36257;46.052;12.540;2022-09-27T13:23:47;24.50;74.60
40932;DHT22;36257;46.052;12.540;2022-09-27T13:31:04;23.50;74.90
40932;DHT22;36257;46.052;12.540;2022-09-27T13:33:46;23.30;75.30
40932;DHT22;36257;46.052;12.540;2022-09-27T13:47:32;22.10;75.00
40932;DHT22;36257;46.052;12.540;2022-09-27T13:50:25;21.90;77.70
40932;DHT22;36257;46.052;12.540;2022-09-27T13:53:16;21.80;77.40
40932;DHT22;36257;46.052;12.540;2022-09-27T13:55:47;21.60;76.60
40932;DHT22;36257;46.052;12.540;2022-09-27T14:01:04;21.00;78.90
40932;DHT22;36257;46.052;12.540;2022-09-27T14:03:58;20.90;82.10
40932;DHT22;36257;46.052;12.540;2022-09-27T14:06:29;20.90;82.30
40932;DHT22;36257;46.052;12.540;2022-09-27T14:09:20;20.90;83.00
40932;DHT22;36257;46.052;12.540;2022-09-27T14:11:56;20.90;82.40
40932;DHT22;36257;46.052;12.540;2022-09-27T14:14:25;20.80;81.70
40932;DHT22;36257;46.052;12.540;2022-09-27T14:16:52;20.70;78.90
40932;DHT22;36257;46.052;12.540;2022-09-27T14:19:22;20.40;80.50
40932;DHT22;36257;46.052;12.540;2022-09-27T14:22:13;20.20;80.60
40932;DHT22;36257;46.052;12.540;2022-09-27T14:27:17;20.00;82.40
40932;DHT22;36257;46.052;12.540;2022-09-27T14:29:46;19.90;82.80
40932;DHT22;36257;46.052;12.540;2022-09-27T14:32:15;19.90;83.00
40932;DHT22;36257;46.052;12.540;2022-09-27T14:34:42;19.90;83.70
40932;DHT22;36257;46.052;12.540;2022-09-27T14:37:34;19.80;83.50
40932;DHT22;36257;46.052;12.540;2022-09-27T14:40:05;19.80;84.30
40932;DHT22;36257;46.052;12.540;2022-09-27T14:42:36;19.80;84.80
40932;DHT22;36257;46.052;12.540;2022-09-27T14:47:51;19.80;84.30
40932;DHT22;36257;46.052;12.540;2022-09-27T14:50:25;19.80;83.90
40932;DHT22;36257;46.052;12.540;2022-09-27T14:52:54;19.80;83.90
40932;DHT22;36257;46.052;12.540;2022-09-27T14:55:24;19.70;84.40
40932;DHT22;36257;46.052;12.540;2022-09-27T14:57:58;19.80;85.60
40932;DHT22;36257;46.052;12.540;2022-09-27T15:00:27;19.70;85.10
40932;DHT22;36257;46.052;12.540;2022-09-27T15:02:58;19.70;85.20
40932;DHT22;36257;46.052;12.540;2022-09-27T15:05:31;19.60;84.00
40932;DHT22;36257;46.052;12.540;2022-09-27T15:07:58;19.60;83.50
40932;DHT22;36257;46.052;12.540;2022-09-27T15:10:28;19.50;84.00
40932;DHT22;36257;46.052;12.540;2022-09-27T15:12:58;19.50;85.20
40932;DHT22;36257;46.052;12.540;2022-09-27T15:15:31;19.50;84.60
40932;DHT22;36257;46.052;12.540;2022-09-27T15:17:58;19.40;84.00
40932;DHT22;36257;46.052;12.540;2022-09-27T15:22:58;19.30;85.30
40932;DHT22;36257;46.052;12.540;2022-09-27T15:25:28;19.30;84.00
40932;DHT22;36257;46.052;12.540;2022-09-27T15:30:39;19.20;83.70
40932;DHT22;36257;46.052;12.540;2022-09-27T15:33:15;19.10;84.20
40932;DHT22;36257;46.052;12.540;2022-09-27T15:35:49;19.10;83.90
40932;DHT22;36257;46.052;12.540;2022-09-27T15:38:37;19.00;83.10
40932;DHT22;36257;46.052;12.540;2022-09-27T15:41:07;18.80;85.10
40932;DHT22;36257;46.052;12.540;2022-09-27T15:43:56;18.70;85.00
40932;DHT22;36257;46.052;12.540;2022-09-27T15:51:49;18.50;86.50
40932;DHT22;36257;46.052;12.540;2022-09-27T15:54:19;18.50;86.70
40932;DHT22;36257;46.052;12.540;2022-09-27T15:56:49;18.50;86.60
40932;DHT22;36257;46.052;12.540;2022-09-27T15:59:19;18.50;86.90
40932;DHT22;36257;46.052;12.540;2022-09-27T16:01:45;18.60;87.50
40932;DHT22;36257;46.052;12.540;2022-09-27T16:04:12;18.60;88.30
40932;DHT22;36257;46.052;12.540;2022-09-27T16:06:38;18.50;87.70
40932;DHT22;36257;46.052;12.540;2022-09-27T16:09:04;18.50;88.40
40932;DHT22;36257;46.052;12.540;2022-09-27T16:11:29;18.50;88.70
40932;DHT22;36257;46.052;12.540;2022-09-27T16:13:55;18.40;88.80
40932;DHT22;36257;46.052;12.540;2022-09-27T16:16:21;18.40;89.10
40932;DHT22;36257;46.052;12.540;2022-09-27T16:18:47;18.30;88.70
40932;DHT22;36257;46.052;12.540;2022-09-27T16:21:13;18.40;89.30
40932;DHT22;36257;46.052;12.540;2022-09-27T16:23:39;18.30;89.40
40932;DHT22;36257;46.052;12.540;2022-09-27T16:26:05;18.30;88.60
40932;DHT22;36257;46.052;12.540;2022-09-27T16:28:32;18.30;88.90
40932;DHT22;36257;46.052;12.540;2022-09-27T16:31:05;18.20;88.40
40932;DHT22;36257;46.052;12.540;2022-09-27T16:33:31;18.20;87.20
40932;DHT22;36257;46.052;12.540;2022-09-27T16:35:58;18.20;87.80
40932;DHT22;36257;46.052;12.540;2022-09-27T16:38:27;18.20;88.60
40932;DHT22;36257;46.052;12.540;2022-09-27T16:40:58;18.20;88.80
40932;DHT22;36257;46.052;12.540;2022-09-27T16:43:26;18.10;89.80
40932;DHT22;36257;46.052;12.540;2022-09-27T16:45:52;18.10;90.40
40932;DHT22;36257;46.052;12.540;2022-09-27T16:48:17;17.90;90.50
40932;DHT22;36257;46.052;12.540;2022-09-27T16:50:43;17.90;90.90
40932;DHT22;36257;46.052;12.540;2022-09-27T16:53:27;17.80;91.70
40932;DHT22;36257;46.052;12.540;2022-09-27T16:55:58;17.70;93.50
40932;DHT22;36257;46.052;12.540;2022-09-27T16:58:23;17.60;94.20
40932;DHT22;36257;46.052;12.540;2022-09-27T17:00:56;17.50;95.50
40932;DHT22;36257;46.052;12.540;2022-09-27T17:03:25;17.40;95.40
40932;DHT22;36257;46.052;12.540;2022-09-27T17:05:51;17.30;95.20
40932;DHT22;36257;46.052;12.540;2022-09-27T17:08:16;17.20;96.00
40932;DHT22;36257;46.052;12.540;2022-09-27T17:10:45;17.20;96.70
40932;DHT22;36257;46.052;12.540;2022-09-27T17:13:11;17.00;97.40
40932;DHT22;36257;46.052;12.540;2022-09-27T17:15:37;16.90;98.20
40932;DHT22;36257;46.052;12.540;2022-09-27T17:18:03;16.90;97.80
40932;DHT22;36257;46.052;12.540;2022-09-27T17:20:29;16.90;97.80
40932;DHT22;36257;46.052;12.540;2022-09-27T17:22:55;17.00;97.40
40932;DHT22;36257;46.052;12.540;2022-09-27T17:25:20;17.00;96.90
40932;DHT22;36257;46.052;12.540;2022-09-27T17:27:46;17.00;96.60
40932;DHT22;36257;46.052;12.540;2022-09-27T17:30:12;17.00;96.10
40932;DHT22;36257;46.052;12.540;2022-09-27T17:32:38;17.00;96.10
40932;DHT22;36257;46.052;12.540;2022-09-27T17:35:05;17.00;95.90
40932;DHT22;36257;46.052;12.540;2022-09-27T17:37:33;16.80;96.90
40932;DHT22;36257;46.052;12.540;2022-09-27T17:39:59;16.60;97.80
40932;DHT22;36257;46.052;12.540;2022-09-27T17:42:24;16.50;98.10
40932;DHT22;36257;46.052;12.540;2022-09-27T17:44:53;16.40;98.40
40932;DHT22;36257;46.052;12.540;2022-09-27T17:47:18;16.40;99.10
40932;DHT22;36257;46.052;12.540;2022-09-27T17:50:03;16.40;99.20
40932;DHT22;36257;46.052;12.540;2022-09-27T17:52:51;16.20;99.60
40932;DHT22;36257;46.052;12.540;2022-09-27T17:55:17;16.20;99.90
40932;DHT22;36257;46.052;12.540;2022-09-27T17:57:45;16.20;99.70
40932;DHT22;36257;46.052;12.540;2022-09-27T18:00:12;16.30;99.00
40932;DHT22;36257;46.052;12.540;2022-09-27T18:02:38;16.40;98.30
40932;DHT22;36257;46.052;12.540;2022-09-27T18:05:04;16.40;97.80
40932;DHT22;36257;46.052;12.540;2022-09-27T18:07:30;16.50;97.50
40932;DHT22;36257;46.052;12.540;2022-09-27T18:09:56;16.50;97.80
40932;DHT22;36257;46.052;12.540;2022-09-27T18:12:22;16.40;98.10
40932;DHT22;36257;46.052;12.540;2022-09-27T18:14:59;16.40;98.70
40932;DHT22;36257;46.052;12.540;2022-09-27T18:17:28;16.30;98.30
40932;DHT22;36257;46.052;12.540;2022-09-27T18:19:54;16.30;97.50
40932;DHT22;36257;46.052;12.540;2022-09-27T18:22:22;16.30;97.60
40932;DHT22;36257;46.052;12.540;2022-09-27T18:24:50;16.30;97.70
40932;DHT22;36257;46.052;12.540;2022-09-27T18:27:16;16.30;97.10